createdAt,value
2022-10-26T00:20:54.000Z,0.0
2022-10-26T00:50:57.000Z,0.0
2022-10-26T01:21:06.000Z,0.0
2022-10-26T01:51:08.000Z,1.0
2022-10-26T02:21:10.000Z,1.0
2022-10-26T02:51:15.082Z,1
2022-10-26T03:21:18.000Z,0.0
2022-10-26T03:51:19.000Z,0.0
2022-10-26T04:21:20.000Z,0.0
2022-10-26T04:51:22.000Z,2.0
2022-10-26T05:21:25.000Z,1.0
2022-10-26T05:51:26.000Z,1.0
2022-10-26T06:21:36.000Z,15.0
2022-10-26T06:51:37.000Z,41.0
2022-10-26T07:21:48.000Z,69.0
2022-10-26T07:51:49.000Z,90.0
2022-10-26T08:21:51.000Z,108.0
2022-10-26T08:51:58.000Z,110.0
2022-10-26T09:21:59.000Z,104.0
2022-10-26T09:52:06.000Z,78.0
2022-10-26T10:22:07.000Z,79.0
2022-10-26T10:52:08.000Z,183.0
2022-10-26T11:22:10.000Z,191.0
2022-10-26T11:52:11.000Z,181.0
2022-10-26T12:22:11.000Z,130.0
2022-10-26T12:52:22.000Z,165.0
2022-10-26T13:22:22.000Z,324.0
2022-10-26T13:52:24.000Z,275.0
2022-10-26T14:22:25.000Z,48.0
2022-10-26T14:52:27.000Z,34.0
2022-10-26T15:22:39.000Z,25.0
2022-10-26T15:52:41.570Z,10
2022-10-26T16:22:54.541Z,2
2022-10-26T16:52:55.715Z,1
2022-10-26T17:23:02.595Z,0
2022-10-26T17:53:03.841Z,1
2022-10-26T18:23:13.632Z,1
2022-10-26T19:23:17.718Z,2
2022-10-26T19:53:20.698Z,2
2022-10-26T20:01:07.000Z,1.0
2022-10-26T20:31:09.000Z,1.0
2022-10-26T20:51:24.000Z,1.0
2022-10-26T21:21:27.978Z,2
2022-10-26T21:51:28.000Z,1.0
2022-10-26T22:21:39.000Z,1.0
2022-10-26T22:51:50.000Z,1.0
2022-10-26T23:21:51.000Z,0.0
2022-10-26T23:51:52.000Z,0.0
